Time;durP1;ratioP1;P1;durP2;ratioP2;P2;SDS_P1;SDS_P2;PMS_P1;PMS_P2;Temp;Humidity;BMP_temperature;BMP_pressure;BME280_temperature;BME280_humidity;BME280_pressure;Samples;Min_cycle;Max_cycle;Signal;HPM_P1;HPM_P2
2022/03/05 00:00:43;;;;;;;9.00;3.88;;;-2.00;99.90;;;;;;6157376;23;20039;-87
2022/03/05 00:03:09;;;;;;;5.00;4.05;;;-2.00;99.90;;;;;;6156772;23;20021;-87
2022/03/05 00:05:35;;;;;;;6.10;3.60;;;-2.00;99.90;;;;;;6158025;23;20028;-86
2022/03/05 00:08:01;;;;;;;5.22;3.85;;;-2.00;99.90;;;;;;6133518;23;20021;-86
2022/03/05 00:10:27;;;;;;;5.80;4.45;;;-2.00;99.90;;;;;;6158034;23;20072;-87
2022/03/05 00:12:52;;;;;;;;;;;-2.00;99.90;;;;;;6159930;23;20410;-86
2022/03/05 00:15:20;;;;;;;5.57;3.85;;;-2.00;99.90;;;;;;6164218;23;20331;-86
2022/03/05 00:17:49;;;;;;;6.60;4.32;;;-2.10;99.90;;;;;;6182663;23;20024;-87
2022/03/05 00:20:15;;;;;;;9.07;4.50;;;-2.00;99.90;;;;;;6157161;23;20020;-85
2022/03/05 00:22:40;;;;;;;8.68;3.97;;;-2.10;99.90;;;;;;6158541;23;20017;-86
2022/03/05 00:25:06;;;;;;;;;;;-2.10;99.90;;;;;;6182697;23;20076;-86
2022/03/05 00:27:32;;;;;;;6.57;4.90;;;-2.00;99.90;;;;;;6207313;23;19919;-85
2022/03/05 00:29:57;;;;;;;;;;;-2.00;99.90;;;;;;6157551;23;20017;-85
2022/03/05 00:32:24;;;;;;;5.30;3.80;;;-1.10;99.90;;;;;;6158453;23;19966;-85
2022/03/05 00:34:49;;;;;;;;;;;-2.00;99.90;;;;;;6157756;23;20144;-85
2022/03/05 00:37:15;;;;;;;5.05;3.72;;;-2.00;99.90;;;;;;6206793;23;19952;-85
2022/03/05 00:39:41;;;;;;;;;;;-2.10;99.90;;;;;;6157930;23;20025;-85
2022/03/05 00:42:07;;;;;;;9.50;3.72;;;-2.10;99.90;;;;;;6156600;23;20316;-86
2022/03/05 00:44:33;;;;;;;8.52;3.90;;;-2.10;99.90;;;;;;6157503;23;20448;-85
2022/03/05 00:46:58;;;;;;;;;;;-2.10;99.90;;;;;;6185443;23;20087;-85
2022/03/05 00:49:25;;;;;;;9.00;4.00;;;-2.10;99.90;;;;;;6188600;23;19912;-85
2022/03/05 00:51:52;;;;;;;4.60;3.13;;;-2.10;99.90;;;;;;6184660;23;20092;-87
2022/03/05 00:54:20;;;;;;;6.75;3.83;;;-2.10;99.90;;;;;;6157461;23;20023;-86
2022/03/05 00:56:46;;;;;;;7.65;4.32;;;-2.10;99.90;;;;;;6159818;23;20044;-86
2022/03/05 00:59:12;;;;;;;7.43;4.90;;;-2.20;99.90;;;;;;6159328;23;20441;-85
2022/03/05 01:01:41;;;;;;;6.38;4.13;;;-2.30;99.90;;;;;;6159217;23;20013;-86
2022/03/05 01:04:07;;;;;;;7.68;3.80;;;-2.30;99.90;;;;;;6183202;23;20200;-86
2022/03/05 01:06:34;;;;;;;5.53;3.85;;;-2.30;99.90;;;;;;6159702;23;20059;-86
2022/03/05 01:09:00;;;;;;;9.95;4.20;;;-2.40;99.90;;;;;;6183992;23;20017;-86
2022/03/05 01:11:26;;;;;;;9.48;5.30;;;-2.40;99.90;;;;;;6134636;23;20420;-86
2022/03/05 01:13:52;;;;;;;6.05;3.38;;;-2.50;99.90;;;;;;6158955;23;20095;-87
2022/03/05 01:16:18;;;;;;;;;;;-2.60;99.90;;;;;;6159116;23;20457;-86
2022/03/05 01:18:43;;;;;;;4.50;4.05;;;-2.60;99.90;;;;;;6165077;23;19916;-86
2022/03/05 01:21:09;;;;;;;;;;;-2.60;99.90;;;;;;6159632;23;20101;-86
2022/03/05 01:23:35;;;;;;;5.95;3.72;;;-2.60;99.90;;;;;;6134603;23;19982;-86
2022/03/05 01:26:04;;;;;;;6.90;4.38;;;-2.70;99.90;;;;;;6184046;23;20503;-85
2022/03/05 01:28:30;;;;;;;12.30;4.65;;;-2.70;99.90;;;;;;6184229;23;20514;-86
2022/03/05 01:30:56;;;;;;;;;;;-2.70;99.90;;;;;;6185023;23;20020;-87
2022/03/05 01:33:22;;;;;;;4.63;3.72;;;-2.70;99.90;;;;;;6158090;23;20291;-85
2022/03/05 01:35:48;;;;;;;;;;;-2.80;99.90;;;;;;6184316;23;20392;-85
2022/03/05 01:38:15;;;;;;;9.60;5.13;;;-2.80;99.90;;;;;;6183881;23;19920;-84
2022/03/05 01:40:41;;;;;;;6.05;3.72;;;-2.80;99.90;;;;;;6163249;23;20252;-83
2022/03/05 01:43:08;;;;;;;8.20;4.78;;;-2.80;99.90;;;;;;6184427;23;20336;-84
2022/03/05 01:45:34;;;;;;;11.18;4.20;;;-2.80;99.90;;;;;;6183177;23;20071;-83
2022/03/05 01:48:00;;;;;;;;;;;-2.90;99.90;;;;;;6182824;23;20472;-85
2022/03/05 01:50:26;;;;;;;8.38;4.43;;;-2.90;99.90;;;;;;6207487;23;19943;-85
2022/03/05 01:52:52;;;;;;;;;;;-2.90;99.90;;;;;;6185018;23;20100;-85
2022/03/05 01:55:17;;;;;;;8.73;4.55;;;-2.90;99.90;;;;;;6134570;23;20363;-85
2022/03/05 01:57:43;;;;;;;;;;;-2.90;99.90;;;;;;6183554;23;20422;-85
2022/03/05 02:00:11;;;;;;;8.98;4.38;;;-2.90;99.90;;;;;;6157821;23;20351;-85
2022/03/05 02:02:36;;;;;;;6.28;3.47;;;-3.00;99.90;;;;;;6183065;23;20035;-85
2022/03/05 02:05:02;;;;;;;;;;;-3.00;99.90;;;;;;6157161;23;20013;-85
2022/03/05 02:07:29;;;;;;;10.68;5.00;;;-3.00;99.90;;;;;;6207664;23;19955;-84
2022/03/05 02:09:54;;;;;;;7.97;4.82;;;-3.10;99.90;;;;;;6158640;23;20029;-87
2022/03/05 02:12:30;;;;;;;;;;;-3.10;99.90;;;;;;6158306;23;20225;-85
2022/03/05 02:14:56;;;;;;;4.82;3.70;;;-3.10;99.90;;;;;;6208008;23;19918;-86
2022/03/05 02:17:22;;;;;;;5.30;4.05;;;-3.20;99.90;;;;;;6157541;23;20105;-85
2022/03/05 02:19:48;;;;;;;;;;;-3.20;99.90;;;;;;6182651;23;20013;-87
2022/03/05 02:22:13;;;;;;;5.35;4.22;;;-3.20;99.90;;;;;;6211588;23;20026;-87
2022/03/05 02:24:39;;;;;;;6.82;4.20;;;-3.30;99.90;;;;;;6133335;23;20023;-86
2022/03/05 02:27:05;;;;;;;;;;;-3.30;99.90;;;;;;6183368;23;20013;-86
2022/03/05 02:29:32;;;;;;;8.35;4.18;;;-3.30;99.90;;;;;;6158396;23;19916;-87
2022/03/05 02:31:59;;;;;;;8.00;4.03;;;-3.30;99.90;;;;;;6133650;23;20017;-86
2022/03/05 02:34:24;;;;;;;;;;;-3.30;99.90;;;;;;6181772;23;20100;-86
2022/03/05 02:36:51;;;;;;;8.45;4.93;;;-3.30;99.90;;;;;;6208133;23;19962;-86
2022/03/05 02:39:17;;;;;;;8.27;4.35;;;-3.20;99.90;;;;;;6167146;23;20017;-85
2022/03/05 02:41:42;;;;;;;;;;;-3.20;99.90;;;;;;6193404;23;20049;-86
2022/03/05 02:44:09;;;;;;;9.00;4.53;;;-3.20;99.90;;;;;;6208296;23;19912;-86
2022/03/05 02:46:35;;;;;;;7.40;5.68;;;-3.20;99.90;;;;;;6183874;23;20027;-86
2022/03/05 02:49:01;;;;;;;;;;;-3.20;99.90;;;;;;6182827;23;20048;-86
2022/03/05 02:51:27;;;;;;;10.52;5.18;;;-3.20;99.90;;;;;;6183533;23;19912;-85
2022/03/05 02:53:52;;;;;;;;;;;-3.20;99.90;;;;;;6159155;23;20057;-87
2022/03/05 02:56:18;;;;;;;9.93;5.97;;;-3.10;99.90;;;;;;6157995;23;19920;-86
2022/03/05 02:58:44;;;;;;;5.53;4.25;;;-3.00;99.90;;;;;;6183326;23;20099;-85
2022/03/05 03:01:09;;;;;;;;;;;-3.00;99.90;;;;;;6158384;23;20477;-85
2022/03/05 03:03:36;;;;;;;4.93;4.30;;;-3.00;99.90;;;;;;6181189;23;20267;-85
2022/03/05 03:06:01;;;;;;;11.07;5.07;;;-3.00;99.90;;;;;;6183280;23;20025;-85
2022/03/05 03:08:27;;;;;;;;;;;-3.00;99.90;;;;;;6157862;23;20017;-83
2022/03/05 03:10:53;;;;;;;4.95;3.67;;;-3.00;99.90;;;;;;6158846;23;19919;-84
2022/03/05 03:13:18;;;;;;;;;;;-3.00;99.90;;;;;;6182409;23;20103;-85
2022/03/05 03:15:44;;;;;;;7.70;3.83;;;-3.00;99.90;;;;;;6157917;23;19920;-84
2022/03/05 03:18:10;;;;;;;;;;;-3.00;99.90;;;;;;6156482;23;20048;-84
2022/03/05 03:20:35;;;;;;;6.60;4.20;;;-3.10;99.90;;;;;;6182436;23;19927;-85
2022/03/05 03:23:02;;;;;;;6.55;4.82;;;-3.10;99.90;;;;;;6182764;23;20067;-85
2022/03/05 03:25:28;;;;;;;6.90;3.90;;;-3.20;99.90;;;;;;6188025;23;20017;-85
2022/03/05 03:27:53;;;;;;;;;;;-3.20;99.90;;;;;;6158779;23;20086;-85
2022/03/05 03:30:19;;;;;;;4.22;3.83;;;-3.20;99.90;;;;;;6183577;23;20313;-85
2022/03/05 03:32:45;;;;;;;;;;;-3.30;99.90;;;;;;6158155;23;20017;-85
2022/03/05 03:35:12;;;;;;;5.18;4.35;;;-3.40;99.90;;;;;;6156133;23;19963;-85
2022/03/05 03:37:40;;;;;;;8.93;4.82;;;-3.40;99.90;;;;;;6181885;23;20017;-84
2022/03/05 03:40:08;;;;;;;5.65;3.42;;;-3.50;99.90;;;;;;6182813;23;20404;-84
2022/03/05 03:42:35;;;;;;;6.88;5.10;;;-3.50;99.90;;;;;;6183471;23;20031;-85
2022/03/05 03:45:00;;;;;;;11.05;4.25;;;-3.50;99.90;;;;;;6191821;23;20024;-86
2022/03/05 03:47:26;;;;;;;;;;;-3.60;99.90;;;;;;6159278;23;20033;-85
2022/03/05 03:49:52;;;;;;;7.82;4.45;;;-3.60;99.90;;;;;;6182150;23;19911;-85
2022/03/05 03:52:18;;;;;;;;;;;-3.60;99.90;;;;;;6157920;23;20060;-85
2022/03/05 03:54:45;;;;;;;6.72;4.53;;;-3.60;99.90;;;;;;6207710;23;20332;-85
2022/03/05 03:57:11;;;;;;;8.18;4.53;;;-3.60;99.90;;;;;;6185974;23;20009;-84
2022/03/05 03:59:37;;;;;;;;;;;-3.70;99.90;;;;;;6182660;23;20062;-85
2022/03/05 04:02:03;;;;;;;6.45;4.50;;;-3.60;99.90;;;;;;6208491;23;19912;-85
2022/03/05 04:04:30;;;;;;;5.30;3.60;;;-3.60;99.90;;;;;;6156157;23;20341;-85
2022/03/05 04:09:39;;;;;;;6.28;4.30;;;-3.60;99.90;;;;;;6182469;23;20017;-85
2022/03/05 04:12:05;;;;;;;;;;;-3.60;99.90;;;;;;6182936;23;20017;-85
2022/03/05 04:14:31;;;;;;;6.30;4.07;;;-3.50;99.90;;;;;;6181603;23;19970;-87
2022/03/05 04:16:57;;;;;;;;;;;-3.50;99.90;;;;;;6158962;23;20337;-87
2022/03/05 04:19:23;;;;;;;7.13;4.57;;;-3.50;99.90;;;;;;6156414;23;19916;-86
2022/03/05 04:21:48;;;;;;;;;;;-3.50;99.90;;;;;;6183193;23;20017;-87
2022/03/05 04:24:14;;;;;;;9.75;4.35;;;-3.50;99.90;;;;;;6157111;23;20005;-86
2022/03/05 04:26:39;;;;;;;;;;;-2.30;99.90;;;;;;6158141;23;20072;-86
2022/03/05 04:29:05;;;;;;;5.50;2.95;;;-3.40;99.90;;;;;;6182273;23;19912;-86
2022/03/05 04:31:31;;;;;;;;;;;-2.00;99.90;;;;;;6182572;23;20017;-86
2022/03/05 04:33:57;;;;;;;3.53;2.63;;;-3.40;99.90;;;;;;6181838;23;19923;-87
2022/03/05 04:36:22;;;;;;;;;;;-3.40;99.90;;;;;;6182679;23;20028;-86
2022/03/05 04:38:48;;;;;;;4.32;3.58;;;-3.40;99.90;;;;;;6182727;23;19916;-87
2022/03/05 04:41:14;;;;;;;;;;;-3.40;99.90;;;;;;6182157;23;20021;-85
2022/03/05 04:43:39;;;;;;;4.68;3.42;;;-3.30;99.90;;;;;;6158582;23;19951;-85
2022/03/05 04:46:05;;;;;;;;;;;-3.30;99.90;;;;;;6161270;23;20095;-85
2022/03/05 04:48:31;;;;;;;11.73;4.13;;;-3.30;99.90;;;;;;6188277;23;19953;-85
2022/03/05 04:50:57;;;;;;;;;;;-3.30;99.90;;;;;;6191081;23;20069;-85
2022/03/05 04:53:22;;;;;;;4.63;3.53;;;-3.30;99.90;;;;;;6139994;23;19912;-86
2022/03/05 04:55:49;;;;;;;10.80;4.70;;;-3.30;99.90;;;;;;6182160;23;20052;-86
2022/03/05 04:58:15;;;;;;;8.32;4.07;;;-3.30;99.90;;;;;;6181464;23;20419;-87
2022/03/05 05:00:41;;;;;;;8.63;3.67;;;-3.30;99.90;;;;;;6182154;23;20019;-86
2022/03/05 05:03:06;;;;;;;;;;;-3.30;99.90;;;;;;6156905;23;20021;-87
2022/03/05 05:05:32;;;;;;;5.82;4.00;;;-3.30;99.90;;;;;;6197596;23;19972;-86
2022/03/05 05:07:58;;;;;;;11.52;4.97;;;-2.60;99.90;;;;;;6192363;23;20017;-86
2022/03/05 05:10:24;;;;;;;5.68;4.05;;;-3.20;99.90;;;;;;6157838;23;20095;-86
2022/03/05 05:12:50;;;;;;;;;;;-3.20;99.90;;;;;;6158943;23;20019;-85
2022/03/05 05:15:16;;;;;;;4.03;3.63;;;-3.20;99.90;;;;;;6185432;23;19967;-85
2022/03/05 05:17:42;;;;;;;;;;;-3.30;99.90;;;;;;6184943;23;20014;-86
2022/03/05 05:20:08;;;;;;;4.40;4.00;;;-3.20;99.90;;;;;;6181342;23;19961;-86
2022/03/05 05:22:35;;;;;;;6.50;4.75;;;-3.20;99.90;;;;;;6181989;23;20021;-87
2022/03/05 05:25:01;;;;;;;7.38;5.10;;;-3.20;99.90;;;;;;6157906;23;20099;-86
2022/03/05 05:27:27;;;;;;;9.57;5.05;;;-3.20;99.90;;;;;;6168151;23;20515;-87
2022/03/05 05:29:53;;;;;;;6.28;3.85;;;-3.20;99.90;;;;;;6189579;23;20100;-86
2022/03/05 05:32:19;;;;;;;;;;;-3.20;99.90;;;;;;6167147;23;20028;-87
2022/03/05 05:34:45;;;;;;;6.15;2.72;;;-3.20;99.90;;;;;;6157733;23;19998;-89
2022/03/05 05:37:11;;;;;;;;;;;-3.20;99.90;;;;;;6183755;23;20092;-88
2022/03/05 05:39:37;;;;;;;8.15;4.38;;;-3.20;99.90;;;;;;6208077;23;19919;-88
2022/03/05 05:42:03;;;;;;;;;;;-3.20;99.90;;;;;;6134179;23;20020;-89
2022/03/05 05:44:29;;;;;;;14.83;4.90;;;-3.20;99.90;;;;;;6209800;23;19948;-87
2022/03/05 05:46:55;;;;;;;;;;;-3.20;99.90;;;;;;6184516;23;20349;-87
2022/03/05 05:49:20;;;;;;;6.50;3.80;;;-3.10;99.90;;;;;;6157939;23;19919;-88
2022/03/05 05:51:46;;;;;;;;;;;-3.10;99.90;;;;;;6183771;23;20028;-86
2022/03/05 05:54:12;;;;;;;5.10;3.65;;;-3.10;99.90;;;;;;6183889;23;20247;-85
2022/03/05 05:56:38;;;;;;;;;;;-3.10;99.90;;;;;;6158276;23;20019;-86
2022/03/05 05:59:04;;;;;;;4.70;3.35;;;-3.10;99.90;;;;;;6182626;23;19912;-87
2022/03/05 06:01:30;;;;;;;6.80;4.82;;;-3.20;99.90;;;;;;6182591;23;20104;-87
2022/03/05 06:04:01;;;;;;;7.85;4.50;;;-3.20;99.90;;;;;;6135566;23;20024;-87
2022/03/05 06:06:26;;;;;;;;;;;-3.20;99.90;;;;;;6134316;23;20017;-87
2022/03/05 06:08:55;;;;;;;5.22;3.90;;;-3.20;99.90;;;;;;6159551;23;19912;-88
2022/03/05 06:11:21;;;;;;;5.95;4.40;;;-3.30;99.90;;;;;;6160287;23;20143;-87
2022/03/05 06:13:47;;;;;;;;;;;-2.00;99.90;;;;;;6162022;23;20475;-88
2022/03/05 06:16:12;;;;;;;8.90;4.70;;;-2.60;99.90;;;;;;6141014;23;19916;-88
2022/03/05 06:18:38;;;;;;;;;;;-3.30;99.90;;;;;;6171767;23;20013;-87
2022/03/05 06:21:05;;;;;;;8.70;4.10;;;-3.30;99.90;;;;;;6164484;23;19915;-88
2022/03/05 06:23:32;;;;;;;9.35;3.42;;;-3.30;99.90;;;;;;6110970;23;20047;-87
2022/03/05 06:25:58;;;;;;;9.57;4.22;;;-3.30;99.90;;;;;;6184382;23;20340;-87
2022/03/05 06:28:27;;;;;;;9.77;4.47;;;-3.30;99.90;;;;;;6184883;23;20029;-87
2022/03/05 06:30:53;;;;;;;10.75;4.03;;;-1.80;99.90;;;;;;6162347;23;20021;-88
2022/03/05 06:33:19;;;;;;;;;;;-3.30;99.90;;;;;;6148469;23;20032;-87
2022/03/05 06:35:45;;;;;;;5.50;3.50;;;-3.30;99.90;;;;;;6177471;23;19965;-87
2022/03/05 06:38:11;;;;;;;;;;;-3.30;99.90;;;;;;6146282;23;20013;-86
2022/03/05 06:40:37;;;;;;;7.45;5.10;;;-1.90;99.90;;;;;;6210104;23;19912;-85
2022/03/05 06:43:02;;;;;;;;;;;-3.30;99.90;;;;;;6185237;23;20013;-87
2022/03/05 06:45:29;;;;;;;6.07;4.18;;;-3.30;99.90;;;;;;6168008;23;20070;-86
2022/03/05 06:47:55;;;;;;;6.60;4.78;;;-2.80;99.90;;;;;;6201206;23;20029;-86
2022/03/05 06:50:24;;;;;;;6.13;4.40;;;-2.00;99.90;;;;;;6196080;23;20017;-88
2022/03/05 06:52:49;;;;;;;;;;;-3.10;99.90;;;;;;6185395;23;20096;-88
2022/03/05 06:55:16;;;;;;;6.47;3.85;;;-3.00;99.90;;;;;;6159213;23;19912;-86
2022/03/05 06:57:43;;;;;;;5.65;3.90;;;-3.00;99.90;;;;;;6135716;23;20017;-87
2022/03/05 07:00:12;;;;;;;7.45;5.07;;;-3.00;99.90;;;;;;6176269;23;20013;-84
2022/03/05 07:02:37;;;;;;;5.22;4.28;;;-2.90;99.90;;;;;;6191755;23;20024;-86
2022/03/05 07:05:03;;;;;;;;;;;-2.80;99.90;;;;;;6135574;23;20017;-89
2022/03/05 07:07:29;;;;;;;5.22;4.15;;;-2.70;99.90;;;;;;6159738;23;20248;-87
2022/03/05 07:09:55;;;;;;;;;;;-2.70;99.90;;;;;;6162459;23;20021;-88
2022/03/05 07:12:21;;;;;;;6.15;4.20;;;-2.60;99.90;;;;;;6213177;23;19912;-88
2022/03/05 07:14:51;;;;;;;5.28;4.32;;;-2.50;99.90;;;;;;6138160;23;20052;-88
2022/03/05 07:17:17;;;;;;;6.90;5.20;;;-2.50;99.90;;;;;;6113186;23;20057;-88
2022/03/05 07:19:43;;;;;;;8.65;5.25;;;-2.40;99.90;;;;;;6164392;23;20024;-87
2022/03/05 07:22:12;;;;;;;8.00;4.22;;;-2.30;99.90;;;;;;6187101;23;20091;-88
2022/03/05 07:24:38;;;;;;;;;;;-0.70;99.90;;;;;;6113167;23;20013;-88
2022/03/05 07:27:04;;;;;;;5.53;3.88;;;-2.10;99.90;;;;;;6184015;23;19919;-87
2022/03/05 07:29:30;;;;;;;6.97;4.68;;;-1.90;99.90;;;;;;6156972;23;20020;-88
2022/03/05 07:31:56;;;;;;;10.27;5.15;;;-1.80;99.90;;;;;;6157173;23;20128;-88
2022/03/05 07:34:22;;;;;;;10.07;4.95;;;-1.70;99.90;;;;;;6187956;23;20087;-88
2022/03/05 07:36:48;;;;;;;;;;;-1.50;99.90;;;;;;6141380;23;20024;-87
2022/03/05 07:39:14;;;;;;;7.60;4.32;;;-1.40;99.90;;;;;;6164384;23;19915;-88
2022/03/05 07:41:41;;;;;;;6.93;5.00;;;-1.30;99.90;;;;;;6167097;23;20079;-89
2022/03/05 07:44:07;;;;;;;7.72;4.47;;;-1.20;99.90;;;;;;6164257;23;20017;-89
2022/03/05 07:46:36;;;;;;;7.38;4.95;;;-1.10;99.90;;;;;;6140853;23;20025;-90
2022/03/05 07:49:02;;;;;;;5.93;4.40;;;-1.00;99.90;;;;;;6164872;23;20023;-86
2022/03/05 07:51:34;;;;;;;10.40;5.57;;;-0.90;99.90;;;;;;6172548;23;20027;-89
2022/03/05 07:54:00;;;;;;;9.63;5.32;;;-0.80;99.90;;;;;;6162794;23;20021;-87
2022/03/05 07:56:25;;;;;;;8.10;5.25;;;0.70;99.90;;;;;;6158069;23;20052;-88
2022/03/05 07:58:51;;;;;;;10.93;5.60;;;-0.60;99.90;;;;;;6156839;23;20317;-87
2022/03/05 08:01:17;;;;;;;;;;;-0.50;99.90;;;;;;6134307;23;20048;-87
2022/03/05 08:03:42;;;;;;;8.43;5.35;;;-0.40;99.90;;;;;;6183244;23;19912;-88
2022/03/05 08:06:08;;;;;;;6.32;4.43;;;-0.30;99.90;;;;;;6159048;23;20024;-88
2022/03/05 08:08:34;;;;;;;8.55;5.05;;;-0.30;99.90;;;;;;6158813;23;20032;-88
2022/03/05 08:10:59;;;;;;;10.00;5.03;;;-0.10;99.90;;;;;;6133691;23;20028;-88
2022/03/05 08:13:27;;;;;;;7.72;5.47;;;1.20;99.90;;;;;;6156957;23;20016;-88
2022/03/05 08:15:52;;;;;;;9.48;5.25;;;-0.10;99.90;;;;;;6133625;23;20103;-87
2022/03/05 08:18:20;;;;;;;8.02;4.53;;;0.10;99.90;;;;;;6157608;23;20100;-87
2022/03/05 08:20:45;;;;;;;7.50;5.03;;;0.10;99.90;;;;;;6158201;23;20467;-86
2022/03/05 08:23:11;;;;;;;9.52;5.53;;;0.20;99.90;;;;;;6158027;23;20009;-86
2022/03/05 08:25:37;;;;;;;9.02;4.88;;;1.50;99.90;;;;;;6133115;23;20021;-87
2022/03/05 08:28:03;;;;;;;12.95;6.10;;;0.80;99.90;;;;;;6187834;23;20016;-88
2022/03/05 08:30:28;;;;;;;9.60;5.32;;;0.50;99.90;;;;;;6134590;23;20449;-87
2022/03/05 08:32:54;;;;;;;7.72;4.57;;;0.50;99.90;;;;;;6184873;23;20079;-86
2022/03/05 08:35:21;;;;;;;11.75;4.80;;;0.60;99.90;;;;;;6159993;23;20013;-89
2022/03/05 08:37:47;;;;;;;7.35;5.55;;;1.90;99.90;;;;;;6139000;23;20013;-89
2022/03/05 08:40:14;;;;;;;;;;;0.80;99.90;;;;;;6161879;23;20170;-89
2022/03/05 08:42:42;;;;;;;6.78;5.15;;;2.20;99.90;;;;;;6139753;23;19912;-86
2022/03/05 08:45:10;;;;;;;5.43;4.15;;;1.60;99.90;;;;;;6140337;23;20135;-88
2022/03/05 08:47:36;;;;;;;11.25;5.85;;;1.00;99.90;;;;;;6121547;23;20078;-90
2022/03/05 08:50:03;;;;;;;15.23;5.03;;;1.80;99.90;;;;;;6158643;23;20016;-85
2022/03/05 08:52:36;;;;;;;9.10;5.40;;;0.80;99.90;;;;;;6184994;23;20025;-89
2022/03/05 08:55:08;;;;;;;9.63;5.22;;;2.40;99.90;;;;;;6116903;23;20032;-88
2022/03/05 08:57:35;;;;;;;9.65;4.90;;;1.30;99.90;;;;;;6164308;23;20097;-89
2022/03/05 09:00:02;;;;;;;13.15;5.63;;;1.40;99.90;;;;;;6187337;23;20013;-88
2022/03/05 09:02:29;;;;;;;10.52;5.75;;;1.40;99.90;;;;;;6191679;23;20018;-88
2022/03/05 09:04:54;;;;;;;6.57;4.35;;;1.70;99.90;;;;;;6141018;23;20043;-88
2022/03/05 09:07:20;;;;;;;11.88;5.63;;;1.60;99.90;;;;;;6188139;23;20432;-88
2022/03/05 09:09:46;;;;;;;7.68;5.28;;;1.70;99.90;;;;;;6137154;23;20021;-88
2022/03/05 09:12:12;;;;;;;10.85;6.15;;;1.70;99.90;;;;;;6136142;23;20032;-88
2022/03/05 09:14:37;;;;;;;7.53;4.32;;;3.20;99.90;;;;;;6167885;23;20048;-88
2022/03/05 09:17:04;;;;;;;11.57;5.53;;;1.90;99.90;;;;;;6145584;23;20021;-87
2022/03/05 09:19:32;;;;;;;10.25;4.82;;;1.90;99.90;;;;;;6163782;23;20021;-88
2022/03/05 09:21:59;;;;;;;10.40;5.88;;;2.00;99.90;;;;;;6189325;23;20016;-87
2022/03/05 09:24:25;;;;;;;8.32;5.25;;;2.10;99.90;;;;;;6164373;23;20021;-89
2022/03/05 09:26:51;;;;;;;12.32;5.60;;;2.20;99.90;;;;;;6195553;23;20515;-87
2022/03/05 09:29:17;;;;;;;9.77;5.53;;;3.00;99.90;;;;;;6144303;23;20109;-87
2022/03/05 09:31:42;;;;;;;10.02;5.55;;;2.20;99.90;;;;;;6165073;23;20025;-88
2022/03/05 09:34:08;;;;;;;7.93;4.75;;;3.70;99.90;;;;;;6145817;23;20021;-87
2022/03/05 09:36:34;;;;;;;8.43;4.88;;;2.40;99.90;;;;;;6191339;23;20025;-88
2022/03/05 09:39:00;;;;;;;12.40;5.47;;;2.90;99.90;;;;;;6137050;23;20021;-87
2022/03/05 09:41:26;;;;;;;9.63;5.65;;;3.30;99.90;;;;;;6165494;23;20024;-87
2022/03/05 09:43:51;;;;;;;;;;;2.60;99.90;;;;;;6189754;23;20432;-87
2022/03/05 09:46:22;;;;;;;7.35;4.55;;;2.60;99.90;;;;;;6188010;23;20252;-88
2022/03/05 09:48:53;;;;;;;16.58;6.38;;;2.70;99.90;;;;;;6186699;23;20060;-88
2022/03/05 09:51:23;;;;;;;8.13;5.63;;;2.80;99.90;;;;;;6195680;23;20340;-88
2022/03/05 09:53:52;;;;;;;9.25;5.85;;;3.60;99.90;;;;;;6144960;23;20168;-86
2022/03/05 09:56:18;;;;;;;10.32;5.70;;;2.90;99.90;;;;;;6166422;23;20021;-86
2022/03/05 09:58:43;;;;;;;10.20;5.75;;;2.90;99.90;;;;;;6141792;23;20013;-90
2022/03/05 10:01:09;;;;;;;11.23;5.32;;;2.90;99.90;;;;;;6168279;23;20017;-89
2022/03/05 10:03:45;;;;;;;8.85;5.13;;;2.90;99.90;;;;;;6142876;23;20333;-89
2022/03/05 10:06:22;;;;;;;8.90;4.82;;;3.00;99.90;;;;;;6167525;23;20551;-89
2022/03/05 10:08:55;;;;;;;12.27;5.97;;;3.10;99.90;;;;;;6141224;23;20071;-88
2022/03/05 10:11:39;;;;;;;10.10;5.80;;;3.60;99.90;;;;;;6144650;23;20021;-88
2022/03/05 10:14:16;;;;;;;9.00;4.88;;;3.30;99.90;;;;;;6166336;23;20020;-88
2022/03/05 10:16:42;;;;;;;9.80;6.15;;;3.30;99.90;;;;;;6188869;23;20032;-88
2022/03/05 10:19:18;;;;;;;15.05;5.53;;;3.40;99.90;;;;;;6139492;23;20459;-88
2022/03/05 10:21:59;;;;;;;10.10;5.85;;;3.40;99.90;;;;;;6169346;23;20017;-88
2022/03/05 10:24:39;;;;;;;7.95;5.03;;;3.50;99.90;;;;;;6171596;23;20021;-87
2022/03/05 10:27:10;;;;;;;8.60;5.32;;;3.50;99.90;;;;;;6172436;23;20092;-89
2022/03/05 10:29:39;;;;;;;8.13;5.20;;;3.80;99.90;;;;;;6175041;23;20021;-86
2022/03/05 10:32:10;;;;;;;10.45;5.55;;;3.50;99.90;;;;;;6198349;23;20027;-86
2022/03/05 10:34:53;;;;;;;14.70;7.10;;;3.60;99.90;;;;;;6121052;23;20021;-86
2022/03/05 10:37:21;;;;;;;12.65;6.13;;;3.60;99.90;;;;;;6166588;23;20017;-88
2022/03/05 10:39:49;;;;;;;8.73;5.78;;;4.10;99.90;;;;;;6165755;23;20444;-90
2022/03/05 10:42:26;;;;;;;9.05;5.25;;;4.30;99.90;;;;;;6165499;23;20021;-88
2022/03/05 10:45:06;;;;;;;9.43;5.57;;;3.90;99.90;;;;;;6190154;23;20013;-89
2022/03/05 10:47:47;;;;;;;9.00;5.85;;;4.00;99.90;;;;;;6187028;23;20025;-88
2022/03/05 10:50:22;;;;;;;11.48;5.78;;;4.00;99.90;;;;;;6189998;23;20471;-89
2022/03/05 10:52:50;;;;;;;10.13;5.50;;;4.20;99.90;;;;;;6140014;23;20017;-88
2022/03/05 10:55:24;;;;;;;11.70;6.15;;;4.10;99.90;;;;;;6144427;23;20032;-88
2022/03/05 10:57:58;;;;;;;9.52;5.45;;;4.20;99.90;;;;;;6167068;23;20523;-90
2022/03/05 11:00:26;;;;;;;12.05;5.93;;;4.70;99.90;;;;;;6171354;23;20090;-91
2022/03/05 11:02:52;;;;;;;11.23;5.78;;;4.40;99.90;;;;;;6140727;23;20016;-90
2022/03/05 11:05:19;;;;;;;11.73;5.85;;;4.50;99.90;;;;;;6163514;23;20024;-89
2022/03/05 11:07:47;;;;;;;13.20;6.15;;;4.60;99.90;;;;;;6189748;23;20017;-89
2022/03/05 11:10:16;;;;;;;11.40;5.13;;;4.70;99.90;;;;;;6163005;23;20037;-89
2022/03/05 11:12:46;;;;;;;11.18;5.43;;;5.70;99.90;;;;;;6167631;23;20017;-89
2022/03/05 11:15:12;;;;;;;12.32;5.53;;;4.90;99.90;;;;;;6190340;23;20037;-87
2022/03/05 11:17:38;;;;;;;9.75;5.53;;;5.10;99.90;;;;;;6139064;23;20071;-89
2022/03/05 11:20:05;;;;;;;8.80;5.68;;;4.90;99.90;;;;;;6140975;23;20388;-88
2022/03/05 11:22:33;;;;;;;12.07;5.55;;;4.90;99.90;;;;;;6190240;23;20441;-88
2022/03/05 11:25:00;;;;;;;12.02;6.05;;;5.00;99.90;;;;;;6167206;23;20021;-87
2022/03/05 11:27:26;;;;;;;9.43;5.82;;;5.10;99.90;;;;;;6121452;23;20073;-88
2022/03/05 11:29:56;;;;;;;14.80;6.15;;;5.10;99.90;;;;;;6140350;23;20017;-87
2022/03/05 11:32:31;;;;;;;12.43;6.10;;;5.10;99.90;;;;;;6163699;23;20056;-89
2022/03/05 11:34:58;;;;;;;12.38;5.90;;;5.20;99.90;;;;;;6186710;23;20356;-89
2022/03/05 11:37:44;;;;;;;13.85;5.90;;;5.30;99.90;;;;;;6193020;23;20029;-89
2022/03/05 11:40:34;;;;;;;13.60;7.60;;;5.40;99.90;;;;;;6178212;23;20020;-87
2022/03/05 11:43:21;;;;;;;11.52;6.05;;;5.40;99.90;;;;;;6198101;23;20016;-88
2022/03/05 11:45:49;;;;;;;10.15;6.43;;;5.50;99.90;;;;;;6141323;23;20017;-88
2022/03/05 11:48:36;;;;;;;14.77;7.07;;;6.40;99.90;;;;;;6191792;23;20418;-88
2022/03/05 11:51:17;;;;;;;13.40;6.57;;;5.50;99.90;;;;;;6189949;23;20095;-89
2022/03/05 11:53:43;;;;;;;13.32;6.35;;;5.60;99.90;;;;;;6163367;23;20475;-88
2022/03/05 11:56:23;;;;;;;10.52;6.18;;;5.60;99.90;;;;;;6160986;23;20013;-88
2022/03/05 11:58:49;;;;;;;12.48;5.38;;;5.60;99.90;;;;;;6139345;23;20072;-86
2022/03/05 12:01:39;;;;;;;13.57;7.05;;;5.70;99.90;;;;;;6165936;23;20060;-87
2022/03/05 12:04:19;;;;;;;13.43;5.97;;;5.70;99.90;;;;;;6168152;23;20479;-88
2022/03/05 12:06:47;;;;;;;12.10;6.65;;;5.90;99.90;;;;;;6163454;23;20089;-85
2022/03/05 12:09:53;;;;;;;12.82;5.82;;;5.90;99.90;;;;;;6111931;23;20053;-88
2022/03/05 12:12:19;;;;;;;10.30;6.03;;;6.00;99.90;;;;;;6142310;23;20017;-87
2022/03/05 12:15:06;;;;;;;9.93;6.35;;;6.10;99.90;;;;;;6188742;23;20036;-88
2022/03/05 12:17:46;;;;;;;11.25;6.30;;;6.10;99.90;;;;;;6163835;23;20060;-88
2022/03/05 12:20:16;;;;;;;12.10;6.45;;;6.10;99.90;;;;;;6192100;23;20017;-89
2022/03/05 12:23:02;;;;;;;15.73;6.28;;;6.20;99.90;;;;;;6168519;23;20024;-87
2022/03/05 12:25:36;;;;;;;15.20;6.57;;;6.30;99.90;;;;;;6166586;23;20024;-88
2022/03/05 12:28:32;;;;;;;11.32;5.78;;;6.40;99.90;;;;;;6192435;23;20017;-87
2022/03/05 12:31:00;;;;;;;10.93;5.93;;;6.50;99.90;;;;;;6142883;23;20024;-88
2022/03/05 12:33:26;;;;;;;12.80;6.22;;;6.50;99.90;;;;;;6192401;23;20017;-88
2022/03/05 12:35:56;;;;;;;9.68;6.60;;;6.60;99.90;;;;;;6192252;23;20411;-89
2022/03/05 12:38:23;;;;;;;10.00;5.68;;;6.70;99.90;;;;;;6192219;23;20017;-87
2022/03/05 12:40:49;;;;;;;12.35;7.05;;;6.40;99.90;;;;;;6140947;23;20065;-87
2022/03/05 12:43:15;;;;;;;;;;;7.50;99.90;;;;;;6191788;23;20079;-86
2022/03/05 12:45:42;;;;;;;14.32;6.93;;;6.70;99.90;;;;;;6196203;23;19913;-87
2022/03/05 12:48:11;;;;;;;14.00;7.38;;;6.80;99.90;;;;;;6193653;23;20032;-86
2022/03/05 12:50:40;;;;;;;12.68;7.30;;;6.80;99.90;;;;;;6194686;23;20084;-90
2022/03/05 12:53:17;;;;;;;13.57;6.45;;;6.90;99.90;;;;;;6171422;23;20096;-89
2022/03/05 12:55:51;;;;;;;17.02;8.77;;;6.90;99.90;;;;;;6195090;23;20035;-89
2022/03/05 12:58:25;;;;;;;15.52;9.27;;;6.90;99.90;;;;;;6169744;23;20017;-87
2022/03/05 13:00:57;;;;;;;14.70;7.18;;;7.20;99.90;;;;;;6193709;23;20028;-89
2022/03/05 13:03:25;;;;;;;11.20;6.70;;;7.00;99.90;;;;;;6120351;23;20111;-88
2022/03/05 13:05:53;;;;;;;16.00;6.57;;;7.30;99.90;;;;;;6191974;23;20032;-88
2022/03/05 13:08:22;;;;;;;10.98;6.50;;;7.10;99.90;;;;;;6194930;23;20097;-89
2022/03/05 13:11:11;;;;;;;11.38;6.40;;;7.10;99.90;;;;;;6194736;23;20044;-89